Time;durP1;ratioP1;P1;durP2;ratioP2;P2;SDS_P1;SDS_P2;PMS_P1;PMS_P2;Temp;Humidity;BMP_temperature;BMP_pressure;BME280_temperature;BME280_humidity;BME280_pressure;Samples;Min_cycle;Max_cycle;Signal;HPM_P1;HPM_P2
2023/04/27 00:01:32;;;;;;;9.80;5.20;;;;;;;9.95;57.43;94542.34;5010632;28;20457;-74
2023/04/27 00:03:57;;;;;;;5.95;2.33;;;;;;;9.93;57.56;94545.22;4983105;28;20432;-74
2023/04/27 00:06:25;;;;;;;8.32;2.83;;;;;;;9.94;57.81;94541.56;4991227;28;20452;-74
2023/04/27 00:08:50;;;;;;;6.35;2.55;;;;;;;9.95;58.20;94544.97;4991388;28;20420;-74
2023/04/27 00:11:16;;;;;;;8.93;2.60;;;;;;;9.90;57.65;94550.09;4990694;28;20431;-74
2023/04/27 00:13:41;;;;;;;15.82;5.57;;;;;;;9.84;57.93;94552.56;4990876;28;20479;-74
2023/04/27 00:16:07;;;;;;;8.13;2.63;;;;;;;9.65;57.10;94552.69;4990568;28;20436;-74
2023/04/27 00:18:32;;;;;;;8.85;4.00;;;;;;;9.52;58.40;94564.06;4973505;28;20901;-74
2023/04/27 00:20:57;;;;;;;10.52;2.83;;;;;;;9.39;58.25;94559.72;4991086;28;20415;-74
2023/04/27 00:23:23;;;;;;;6.03;2.57;;;;;;;9.50;58.92;94557.44;4996367;28;20173;-74
2023/04/27 00:25:48;;;;;;;6.17;2.67;;;;;;;9.49;58.72;94558.44;5010025;28;20534;-75
2023/04/27 00:28:14;;;;;;;11.20;2.87;;;;;;;9.28;58.27;94556.94;5010529;28;20546;-74
2023/04/27 00:30:39;;;;;;;5.63;2.50;;;;;;;9.18;59.86;94557.38;4992502;28;20430;-74
2023/04/27 00:33:05;;;;;;;6.60;2.70;;;;;;;9.23;59.97;94551.53;5009978;28;20413;-74
2023/04/27 00:35:33;;;;;;;3.73;2.30;;;;;;;9.30;59.51;94550.47;5011119;28;20242;-74
2023/04/27 00:37:58;;;;;;;6.37;2.00;;;;;;;9.33;59.11;94554.50;5011115;28;20180;-74
2023/04/27 00:40:24;;;;;;;6.37;2.20;;;;;;;9.30;59.48;94560.97;5010911;28;20998;-74
2023/04/27 00:42:49;;;;;;;7.67;2.67;;;;;;;9.28;59.67;94547.25;4992239;28;20792;-74
2023/04/27 00:45:15;;;;;;;5.87;2.23;;;;;;;9.27;59.78;94552.69;5009852;28;20449;-74
2023/04/27 00:47:41;;;;;;;7.77;2.50;;;;;;;9.21;59.70;94551.72;5009981;28;20457;-74
2023/04/27 00:50:09;;;;;;;8.60;2.53;;;;;;;9.23;59.28;94548.91;5011118;28;20184;-74
2023/04/27 00:52:35;;;;;;;6.32;2.63;;;;;;;9.02;60.26;94556.03;5009834;28;20418;-74
2023/04/27 00:55:03;;;;;;;4.33;2.40;;;;;;;9.04;60.03;94559.28;4996190;28;20420;-74
2023/04/27 00:57:29;;;;;;;8.18;2.72;;;;;;;8.93;59.96;94561.72;4990100;28;21128;-74
2023/04/27 00:59:54;;;;;;;3.37;1.70;;;;;;;8.99;60.17;94559.06;4991297;28;20180;-74
2023/04/27 01:02:20;;;;;;;3.97;2.20;;;;;;;8.84;59.89;94558.53;4998475;28;20831;-74
2023/04/27 01:04:49;;;;;;;8.10;2.23;;;;;;;8.69;60.73;94561.41;5009449;28;20453;-74
2023/04/27 01:07:15;;;;;;;2.33;2.00;;;;;;;8.75;61.18;94561.59;5010890;28;20180;-74
2023/04/27 01:09:40;;;;;;;6.13;2.47;;;;;;;8.82;61.76;94567.66;5009853;28;20414;-74
2023/04/27 01:12:06;;;;;;;8.27;2.40;;;;;;;8.82;61.08;94571.03;5010410;28;20776;-74
2023/04/27 01:14:31;;;;;;;6.45;2.40;;;;;;;8.65;60.09;94565.44;5009516;28;20431;-74
2023/04/27 01:16:57;;;;;;;5.50;2.20;;;;;;;8.64;60.63;94566.50;4990388;28;20786;-74
2023/04/27 01:19:22;;;;;;;3.63;2.10;;;;;;;8.67;60.99;94568.69;4990552;28;20413;-74
2023/04/27 01:21:48;;;;;;;2.70;1.93;;;;;;;8.68;61.07;94572.09;4991090;28;20184;-74
2023/04/27 01:24:13;;;;;;;5.23;2.60;;;;;;;8.58;61.11;94572.53;4993218;28;20440;-74
2023/04/27 01:26:39;;;;;;;9.87;2.87;;;;;;;8.54;60.78;94560.03;4994767;28;20232;-74
2023/04/27 01:29:05;;;;;;;4.53;2.33;;;;;;;8.31;61.12;94576.19;4994747;28;20420;-74
2023/04/27 01:31:30;;;;;;;9.90;2.80;;;;;;;8.08;62.26;94576.59;4993649;28;20430;-73
2023/04/27 01:33:55;;;;;;;6.30;3.03;;;;;;;8.16;62.32;94578.22;4993509;28;20532;-74
2023/04/27 01:36:21;;;;;;;6.50;3.10;;;;;;;8.08;62.42;94581.84;4994834;28;20415;-74
2023/04/27 01:38:46;;;;;;;8.73;3.47;;;;;;;7.83;62.95;94584.25;4994287;28;20523;-74
2023/04/27 01:41:12;;;;;;;11.15;4.88;;;;;;;7.76;63.21;94564.31;4993559;28;20479;-74
2023/04/27 01:43:37;;;;;;;17.03;9.57;;;;;;;7.91;63.10;94580.63;4994782;28;20181;-74
2023/04/27 01:46:10;;;;;;;20.55;9.75;;;;;;;7.90;63.66;94584.25;4986822;28;20453;-74
2023/04/27 01:48:37;;;;;;;14.20;7.13;;;;;;;7.86;63.49;94581.25;4994488;28;20432;-74
2023/04/27 01:51:02;;;;;;;10.77;4.33;;;;;;;7.83;62.89;94557.25;4995097;28;20192;-74
2023/04/27 01:53:29;;;;;;;4.47;2.70;;;;;;;8.00;62.93;94584.66;4994724;28;20714;-74
2023/04/27 01:55:54;;;;;;;8.65;3.08;;;;;;;7.88;63.16;94589.69;4993469;28;20429;-74
2023/04/27 01:58:20;;;;;;;4.63;2.85;;;;;;;7.56;63.45;94580.78;4993226;28;20496;-74
2023/04/27 02:00:45;;;;;;;10.47;3.80;;;;;;;7.72;63.71;94587.47;4993750;28;20849;-74
2023/04/27 02:03:10;;;;;;;10.60;5.03;;;;;;;7.80;63.92;94583.84;4993710;28;20431;-74
2023/04/27 02:05:36;;;;;;;9.97;5.20;;;;;;;7.86;63.56;94580.44;4976792;28;20284;-74
2023/04/27 02:08:01;;;;;;;9.87;5.53;;;;;;;7.69;63.98;94587.06;4993138;28;20455;-74
2023/04/27 02:10:27;;;;;;;10.73;5.90;;;;;;;7.86;64.45;94590.91;4994271;28;20180;-74
2023/04/27 02:12:52;;;;;;;8.18;3.17;;;;;;;7.85;63.62;94582.25;4993005;28;20420;-74
2023/04/27 02:15:18;;;;;;;6.30;3.17;;;;;;;7.81;63.57;94590.69;4992802;28;20450;-74
2023/04/27 02:17:44;;;;;;;3.10;2.50;;;;;;;7.89;64.05;94583.44;4994201;28;20184;-74
2023/04/27 02:20:11;;;;;;;5.97;2.40;;;;;;;8.06;62.65;94594.34;4994275;28;20184;-74
2023/04/27 02:22:40;;;;;;;9.30;3.50;;;;;;;8.02;62.88;94595.75;4994143;28;20205;-74
2023/04/27 02:25:06;;;;;;;5.03;2.40;;;;;;;8.12;62.47;94593.56;4994541;28;20287;-74
2023/04/27 02:27:32;;;;;;;8.15;2.63;;;;;;;7.75;62.75;94584.47;4992970;28;20527;-74
2023/04/27 02:29:57;;;;;;;10.40;3.20;;;;;;;7.77;63.35;94592.94;4993155;28;20873;-74
2023/04/27 02:32:22;;;;;;;7.87;3.17;;;;;;;7.78;63.24;94597.16;4992933;28;20430;-74
2023/04/27 02:34:48;;;;;;;8.67;3.60;;;;;;;7.89;63.84;94593.94;4991897;28;20872;-74
2023/04/27 02:37:13;;;;;;;12.75;4.72;;;;;;;7.87;63.12;94603.81;4992014;28;20439;-74
2023/04/27 02:39:38;;;;;;;7.40;3.13;;;;;;;7.86;63.24;94599.59;4991580;28;20446;-74
2023/04/27 02:42:04;;;;;;;6.80;2.70;;;;;;;7.93;62.98;94582.06;4993808;28;20185;-74
2023/04/27 02:44:29;;;;;;;9.53;2.33;;;;;;;8.20;62.97;94606.47;4993545;28;20275;-74
2023/04/27 02:46:55;;;;;;;8.27;2.67;;;;;;;8.20;62.74;94606.47;4993627;28;20549;-74
2023/04/27 02:49:20;;;;;;;5.23;2.97;;;;;;;8.35;61.99;94610.72;4993242;28;20678;-74
2023/04/27 02:51:46;;;;;;;5.57;2.80;;;;;;;8.31;61.46;94605.06;4992010;28;20452;-74
2023/04/27 02:54:11;;;;;;;5.90;2.40;;;;;;;8.39;61.11;94609.31;4993420;28;20184;-74
2023/04/27 02:56:36;;;;;;;6.80;2.60;;;;;;;8.38;60.86;94608.50;4993367;28;20188;-74
2023/04/27 02:59:02;;;;;;;3.60;2.07;;;;;;;8.39;61.33;94611.94;4993488;28;20688;-75
2023/04/27 03:01:28;;;;;;;6.05;2.80;;;;;;;8.36;62.27;94607.06;4992597;28;20435;-74
2023/04/27 03:03:53;;;;;;;5.47;2.73;;;;;;;8.35;62.17;94619.38;4993300;28;20228;-75
2023/04/27 03:06:19;;;;;;;4.40;2.27;;;;;;;8.29;60.92;94620.16;4993414;28;20211;-75
2023/04/27 03:08:44;;;;;;;5.63;2.20;;;;;;;8.31;61.61;94612.91;4993302;28;20275;-75
2023/04/27 03:11:11;;;;;;;6.90;2.65;;;;;;;8.36;61.61;94614.94;4992841;28;20415;-75
2023/04/27 03:13:40;;;;;;;12.90;2.93;;;;;;;8.31;61.37;94621.59;4993377;28;20208;-75
2023/04/27 03:16:12;;;;;;;12.73;3.20;;;;;;;8.20;60.81;94600.41;4993399;28;20173;-75
2023/04/27 03:18:39;;;;;;;6.03;2.70;;;;;;;8.27;61.48;94622.19;4993194;28;20424;-74
2023/04/27 03:21:05;;;;;;;11.43;2.77;;;;;;;8.19;60.14;94630.25;4990507;28;20448;-75
2023/04/27 03:23:30;;;;;;;8.35;2.70;;;;;;;8.12;60.71;94625.00;4992897;28;20419;-74
2023/04/27 03:25:56;;;;;;;3.73;2.43;;;;;;;8.09;62.04;94625.41;4990082;28;20577;-75
2023/04/27 03:28:21;;;;;;;6.93;2.80;;;;;;;8.11;62.33;94633.88;4992327;28;20546;-75
2023/04/27 03:30:47;;;;;;;12.23;2.90;;;;;;;8.07;62.47;94634.47;4986203;28;20281;-75
2023/04/27 03:33:13;;;;;;;7.83;3.13;;;;;;;8.06;62.50;94625.00;4991725;28;20440;-74
2023/04/27 03:35:38;;;;;;;5.37;2.87;;;;;;;8.11;62.59;94635.69;4991934;28;20643;-74
2023/04/27 03:38:03;;;;;;;12.30;4.83;;;;;;;8.08;61.71;94633.47;4991407;28;20423;-74
2023/04/27 03:40:29;;;;;;;11.27;4.83;;;;;;;8.11;61.76;94630.44;4991066;28;20404;-73
2023/04/27 03:42:54;;;;;;;6.27;3.13;;;;;;;8.17;61.08;94630.44;4991159;28;20944;-73
2023/04/27 03:45:21;;;;;;;6.40;2.57;;;;;;;8.20;60.90;94637.91;4991034;28;20446;-74
2023/04/27 03:47:46;;;;;;;3.87;2.50;;;;;;;8.25;60.68;94642.53;4992556;28;20185;-73
2023/04/27 03:50:12;;;;;;;5.23;2.47;;;;;;;8.32;60.75;94641.56;4992542;28;20627;-74
2023/04/27 03:52:37;;;;;;;5.80;3.23;;;;;;;8.27;60.83;94643.16;4992416;28;20188;-74
2023/04/27 03:55:03;;;;;;;3.80;2.73;;;;;;;8.24;60.51;94644.34;4992431;28;20260;-74
2023/04/27 03:57:29;;;;;;;5.60;2.50;;;;;;;8.21;59.65;94651.84;4992195;28;20342;-74
2023/04/27 03:59:56;;;;;;;5.47;2.43;;;;;;;8.22;60.56;94661.28;4992387;28;20746;-74
2023/04/27 04:02:22;;;;;;;4.10;2.07;;;;;;;8.22;60.78;94666.53;4992248;28;20208;-74
2023/04/27 04:04:47;;;;;;;5.77;2.10;;;;;;;8.13;60.64;94667.75;4991983;28;20681;-75
2023/04/27 04:07:12;;;;;;;4.63;2.60;;;;;;;8.05;61.97;94670.53;4992919;28;20593;-75
2023/04/27 04:09:38;;;;;;;9.57;2.60;;;;;;;8.03;60.94;94670.78;4992723;28;20286;-74
2023/04/27 04:12:04;;;;;;;5.67;2.30;;;;;;;8.06;60.47;94672.97;4990134;28;20650;-74
2023/04/27 04:14:29;;;;;;;7.57;2.33;;;;;;;8.10;61.30;94684.69;4991942;28;20232;-74
2023/04/27 04:16:55;;;;;;;7.80;2.93;;;;;;;8.16;60.86;94678.63;4991858;28;20279;-73
2023/04/27 04:19:20;;;;;;;5.83;2.33;;;;;;;8.15;60.27;94684.88;4991801;28;20239;-74
2023/04/27 04:21:47;;;;;;;6.23;2.40;;;;;;;8.14;59.94;94685.09;4977651;28;20189;-74
2023/04/27 04:24:14;;;;;;;12.20;2.57;;;;;;;8.17;61.02;94685.50;4990976;28;20176;-74
2023/04/27 04:26:40;;;;;;;4.83;2.40;;;;;;;8.13;60.21;94689.50;4996930;28;20311;-74
2023/04/27 04:29:05;;;;;;;3.77;2.30;;;;;;;8.17;60.89;94692.56;5011391;28;20769;-74
2023/04/27 04:31:32;;;;;;;4.73;2.40;;;;;;;8.53;60.18;94695.66;5011185;28;20184;-74
2023/04/27 04:34:00;;;;;;;10.60;2.67;;;;;;;9.21;59.40;94697.97;5011454;28;20192;-74
2023/04/27 04:36:25;;;;;;;9.50;3.23;;;;;;;9.77;56.12;94703.44;5011261;28;20214;-74
2023/04/27 04:38:52;;;;;;;6.60;2.53;;;;;;;10.20;55.97;94699.16;5005188;28;20177;-74
2023/04/27 04:41:18;;;;;;;6.77;3.00;;;;;;;10.61;53.91;94713.69;4991542;28;20177;-74
2023/04/27 04:43:43;;;;;;;10.63;3.70;;;;;;;10.46;54.26;94707.94;4991436;28;20766;-74
2023/04/27 04:46:08;;;;;;;8.63;3.63;;;;;;;10.66;54.03;94715.66;5007416;28;20203;-73
2023/04/27 04:48:34;;;;;;;9.40;4.10;;;;;;;11.41;52.71;94716.41;4991740;28;20185;-74
2023/04/27 04:50:59;;;;;;;7.20;3.53;;;;;;;12.23;50.81;94726.38;4991119;28;20557;-73
2023/04/27 04:53:25;;;;;;;9.57;4.00;;;;;;;13.17;48.00;94724.75;4991114;28;20200;-74
2023/04/27 04:55:51;;;;;;;8.87;3.83;;;;;;;14.02;51.17;94724.16;4991531;28;20268;-73
2023/04/27 04:58:16;;;;;;;18.13;5.97;;;;;;;14.99;45.14;94730.19;4990872;28;20899;-74
2023/04/27 05:00:42;;;;;;;11.43;4.20;;;;;;;15.50;42.98;94734.38;4991331;28;20185;-74
2023/04/27 05:03:07;;;;;;;15.13;5.37;;;;;;;15.37;42.10;94734.75;4991399;28;20177;-75
2023/04/27 05:05:33;;;;;;;10.47;5.30;;;;;;;15.42;42.82;94740.13;4991189;28;20717;-73
2023/04/27 05:07:58;;;;;;;8.03;4.43;;;;;;;15.40;43.53;94729.75;4991288;28;20213;-75
2023/04/27 05:10:23;;;;;;;10.93;3.87;;;;;;;16.06;41.74;94735.16;5006798;28;20184;-73
2023/04/27 05:12:49;;;;;;;13.57;5.03;;;;;;;16.06;41.06;94738.63;5010475;28;20724;-73
2023/04/27 05:15:14;;;;;;;7.03;3.47;;;;;;;14.98;42.53;94742.63;5010612;28;20176;-74
2023/04/27 05:17:40;;;;;;;13.77;3.50;;;;;;;13.80;44.62;94742.53;4993841;28;20261;-73
2023/04/27 05:20:06;;;;;;;9.50;4.13;;;;;;;13.17;47.14;94749.34;4990685;28;20668;-75
2023/04/27 05:22:32;;;;;;;18.27;4.13;;;;;;;12.93;48.38;94747.69;4989559;28;20199;-75
2023/04/27 05:24:58;;;;;;;11.50;3.73;;;;;;;12.74;49.26;94748.81;5008856;28;20290;-74
2023/04/27 05:27:23;;;;;;;8.53;3.17;;;;;;;12.53;50.28;94741.41;4997860;28;20290;-75
2023/04/27 05:29:49;;;;;;;7.17;3.40;;;;;;;12.17;50.26;94747.59;4991917;28;20189;-75
2023/04/27 05:32:14;;;;;;;5.57;2.47;;;;;;;11.87;51.40;94742.25;4991533;28;20958;-75
2023/04/27 05:34:42;;;;;;;8.30;3.40;;;;;;;11.59;51.75;94743.56;4990845;28;20188;-75
2023/04/27 05:37:08;;;;;;;10.20;3.77;;;;;;;11.39;52.94;94745.63;4978891;28;20193;-75
2023/04/27 05:39:33;;;;;;;4.53;2.50;;;;;;;11.26;53.03;94745.72;4987316;28;20189;-75
2023/04/27 05:41:58;;;;;;;7.13;3.10;;;;;;;11.07;53.75;94750.16;4991222;28;20181;-75
2023/04/27 05:44:27;;;;;;;7.73;3.30;;;;;;;10.98;54.76;94748.84;4990352;28;20174;-75
2023/04/27 05:46:52;;;;;;;10.80;3.10;;;;;;;10.74;54.11;94753.06;4990078;28;20185;-75
2023/04/27 05:49:17;;;;;;;7.10;3.13;;;;;;;10.45;55.20;94743.16;4989850;28;20180;-75
2023/04/27 05:51:43;;;;;;;7.87;3.17;;;;;;;10.46;56.44;94750.84;4990174;28;20704;-75
2023/04/27 05:54:08;;;;;;;8.53;3.10;;;;;;;10.58;56.95;94754.38;4990242;28;20177;-75
2023/04/27 05:56:34;;;;;;;10.57;3.90;;;;;;;10.64;56.46;94752.72;4990055;28;20203;-75
2023/04/27 05:58:59;;;;;;;10.30;4.50;;;;;;;10.79;56.62;94750.59;4990707;28;20177;-75
2023/04/27 06:01:25;;;;;;;5.37;3.00;;;;;;;10.95;56.09;94755.34;4991162;28;20692;-75
2023/04/27 06:03:51;;;;;;;6.13;3.80;;;;;;;11.02;54.85;94741.28;4991344;28;20178;-75
2023/04/27 06:06:16;;;;;;;13.13;3.70;;;;;;;11.25;55.37;94752.00;4991239;28;20285;-75
2023/04/27 06:08:41;;;;;;;6.13;3.10;;;;;;;11.40;55.50;94743.78;4991362;28;20181;-75
2023/04/27 06:11:07;;;;;;;6.80;2.87;;;;;;;11.37;55.22;94723.13;4993964;28;20660;-75
2023/04/27 06:13:32;;;;;;;8.13;2.90;;;;;;;11.57;54.13;94758.81;4994841;28;20177;-75
2023/04/27 06:15:59;;;;;;;9.57;3.57;;;;;;;11.64;54.17;94753.47;4993721;28;20248;-75
2023/04/27 06:18:25;;;;;;;11.93;3.93;;;;;;;11.71;54.92;94748.91;4994754;28;20207;-75
2023/04/27 06:20:50;;;;;;;4.60;2.90;;;;;;;11.79;54.33;94745.19;4976870;28;20213;-75
2023/04/27 06:23:16;;;;;;;5.20;2.73;;;;;;;11.64;53.49;94732.38;4994494;28;20169;-75
2023/04/27 06:25:41;;;;;;;5.30;2.60;;;;;;;11.80;53.74;94741.53;4994449;28;20264;-75
2023/04/27 06:28:07;;;;;;;4.07;2.40;;;;;;;11.98;52.72;94738.91;4984402;28;20210;-75
2023/04/27 06:30:32;;;;;;;5.33;3.30;;;;;;;12.25;53.35;94739.34;4982024;28;20177;-75
2023/04/27 06:32:57;;;;;;;7.80;2.80;;;;;;;12.41;52.39;94744.81;4994549;28;20173;-75
2023/04/27 06:35:23;;;;;;;7.93;3.67;;;;;;;12.60;51.08;94728.91;4994564;28;20184;-75
2023/04/27 06:37:48;;;;;;;5.17;3.07;;;;;;;13.07;50.10;94743.78;4994377;28;20184;-75
2023/04/27 06:40:13;;;;;;;5.23;3.00;;;;;;;13.70;50.59;94748.41;4994492;28;20256;-75
2023/04/27 06:42:39;;;;;;;3.90;2.57;;;;;;;14.13;48.76;94744.50;4994222;28;20181;-75
2023/04/27 06:45:06;;;;;;;5.87;3.13;;;;;;;14.50;47.66;94748.44;4994075;28;20696;-76
2023/04/27 06:47:31;;;;;;;9.03;3.33;;;;;;;14.39;45.69;94741.34;4994368;28;20264;-76
2023/04/27 06:49:56;;;;;;;3.97;2.60;;;;;;;13.97;44.57;94719.59;4994610;28;20261;-76
2023/04/27 06:52:22;;;;;;;7.23;3.33;;;;;;;14.52;46.33;94730.47;4994032;28;20213;-76
2023/04/27 06:54:48;;;;;;;13.83;6.37;;;;;;;14.82;45.19;94735.47;4994248;28;20659;-76
2023/04/27 06:57:13;;;;;;;6.47;3.33;;;;;;;15.36;46.78;94733.13;4993924;28;20211;-76
2023/04/27 06:59:38;;;;;;;5.77;2.90;;;;;;;15.50;44.17;94734.38;4994109;28;20264;-76
2023/04/27 07:02:05;;;;;;;7.18;4.13;;;;;;;15.76;43.93;94739.03;4993891;28;20192;-76
2023/04/27 07:04:30;;;;;;;11.50;5.28;;;;;;;16.07;42.16;94719.00;4993846;28;20169;-76
2023/04/27 07:06:56;;;;;;;12.25;4.65;;;;;;;16.51;43.43;94726.91;4993889;28;20181;-76
2023/04/27 07:09:21;;;;;;;9.63;3.60;;;;;;;17.00;41.70;94719.66;4994106;28;20558;-77
2023/04/27 07:11:47;;;;;;;10.55;5.40;;;;;;;17.28;40.83;94734.53;4993881;28;20308;-76
2023/04/27 07:14:12;;;;;;;8.27;3.45;;;;;;;17.57;40.48;94738.44;4993576;28;20204;-76
2023/04/27 07:16:38;;;;;;;11.35;5.70;;;;;;;17.40;39.99;94734.31;4993473;28;20265;-76
2023/04/27 07:19:03;;;;;;;10.25;4.38;;;;;;;16.74;39.35;94702.69;4993393;28;20654;-76
2023/04/27 07:21:28;;;;;;;12.05;6.55;;;;;;;16.56;41.26;94732.25;4992830;28;20637;-76
2023/04/27 07:23:54;;;;;;;11.07;3.60;;;;;;;16.29;41.88;94739.41;4993651;28;20184;-77
2023/04/27 07:26:20;;;;;;;5.53;3.08;;;;;;;16.15;41.76;94737.13;4995154;28;20205;-76
2023/04/27 07:28:46;;;;;;;7.28;2.88;;;;;;;15.95;42.29;94734.22;5011237;28;20669;-77
2023/04/27 07:31:11;;;;;;;5.57;3.42;;;;;;;15.86;41.79;94730.41;4999231;28;20192;-77
2023/04/27 07:33:37;;;;;;;5.20;2.30;;;;;;;15.89;42.09;94729.91;4996445;28;20181;-78
2023/04/27 07:36:03;;;;;;;7.40;3.50;;;;;;;15.33;42.43;94723.00;5002039;28;20189;-78
2023/04/27 07:38:30;;;;;;;6.50;3.20;;;;;;;15.26;42.59;94736.44;5009082;28;20180;-77
2023/04/27 07:40:57;;;;;;;5.43;2.73;;;;;;;15.46;44.11;94707.56;4987725;28;20187;-78
2023/04/27 07:43:24;;;;;;;6.50;3.60;;;;;;;16.18;43.46;94738.47;5013810;28;20216;-78
2023/04/27 07:45:50;;;;;;;9.00;3.80;;;;;;;16.92;42.40;94720.94;5011163;28;20748;-78
2023/04/27 07:48:15;;;;;;;6.35;3.47;;;;;;;17.50;41.11;94727.22;4996203;28;20185;-78
2023/04/27 07:50:41;;;;;;;5.55;2.80;;;;;;;18.05;41.64;94723.28;5001206;28;20201;-78
2023/04/27 07:53:06;;;;;;;4.50;2.03;;;;;;;18.63;38.28;94732.81;4996058;28;20180;-78
2023/04/27 07:55:32;;;;;;;7.70;2.78;;;;;;;18.74;36.69;94712.28;4998905;28;20582;-78
2023/04/27 07:57:57;;;;;;;5.05;2.55;;;;;;;18.57;36.88;94733.06;5004352;28;20621;-78
2023/04/27 08:00:26;;;;;;;8.73;3.58;;;;;;;18.26;37.37;94738.25;5005424;28;20179;-78
2023/04/27 08:02:53;;;;;;;4.63;2.70;;;;;;;17.88;37.13;94735.97;5004510;28;20180;-78
2023/04/27 08:05:18;;;;;;;8.73;4.88;;;;;;;17.60;38.92;94723.81;5004960;28;20636;-78
2023/04/27 08:07:44;;;;;;;4.65;2.85;;;;;;;17.51;39.12;94736.78;4999187;28;20185;-78
2023/04/27 08:10:10;;;;;;;9.80;3.75;;;;;;;17.38;39.13;94715.97;5001362;28;20184;-77
2023/04/27 08:12:35;;;;;;;5.43;2.58;;;;;;;17.29;40.70;94731.59;4992419;28;20670;-76
2023/04/27 08:15:01;;;;;;;12.90;3.00;;;;;;;16.82;38.97;94728.81;4999828;28;20231;-77
2023/04/27 08:17:26;;;;;;;5.45;2.70;;;;;;;17.05;40.85;94724.22;4993993;28;20245;-77
2023/04/27 08:19:52;;;;;;;5.38;3.10;;;;;;;17.63;39.75;94729.47;4998244;28;20238;-77
2023/04/27 08:22:17;;;;;;;10.13;4.65;;;;;;;18.22;40.24;94729.19;4995445;28;20177;-77
2023/04/27 08:24:43;;;;;;;4.47;2.50;;;;;;;18.99;40.75;94727.53;4994004;28;20653;-76
2023/04/27 08:27:08;;;;;;;10.45;4.30;;;;;;;19.30;36.64;94730.97;5011674;28;20255;-76
2023/04/27 08:29:34;;;;;;;9.10;2.92;;;;;;;19.22;36.95;94700.28;5011606;28;20207;-75
2023/04/27 08:32:01;;;;;;;8.68;2.20;;;;;;;19.46;37.72;94727.25;5010984;28;20227;-75
2023/04/27 08:34:27;;;;;;;5.75;2.60;;;;;;;19.30;35.61;94717.63;4994630;28;20639;-74
2023/04/27 08:36:53;;;;;;;5.78;2.20;;;;;;;18.92;37.42;94732.31;4992235;28;20248;-77
2023/04/27 08:39:20;;;;;;;3.67;2.10;;;;;;;19.16;36.27;94736.88;4991818;28;20716;-76
2023/04/27 08:41:45;;;;;;;3.03;2.17;;;;;;;19.23;36.93;94720.59;5006020;28;20252;-76
2023/04/27 08:44:11;;;;;;;8.82;2.85;;;;;;;19.40;36.68;94723.78;4991474;28;20296;-76
2023/04/27 08:46:37;;;;;;;9.85;3.50;;;;;;;19.51;37.70;94729.94;4991442;28;20205;-76
2023/04/27 08:49:02;;;;;;;5.82;2.33;;;;;;;19.50;36.90;94728.34;4992024;28;20324;-76
2023/04/27 08:51:28;;;;;;;8.48;2.90;;;;;;;19.43;34.82;94728.59;5006591;28;20184;-76
2023/04/27 08:53:56;;;;;;;5.63;2.70;;;;;;;19.52;35.17;94727.00;5002957;28;20269;-76
2023/04/27 08:56:26;;;;;;;5.72;2.10;;;;;;;19.72;37.45;94728.81;4997753;28;20173;-76
2023/04/27 08:58:53;;;;;;;8.10;2.28;;;;;;;19.83;37.03;94726.94;4991615;28;20201;-76
2023/04/27 09:01:19;;;;;;;7.95;2.33;;;;;;;19.78;35.81;94726.94;4991615;28;20180;-76
2023/04/27 09:03:45;;;;;;;4.05;2.22;;;;;;;19.53;36.47;94728.59;4991608;28;20272;-76
2023/04/27 09:06:12;;;;;;;5.55;2.47;;;;;;;19.32;36.75;94718.19;4991597;28;20284;-76
2023/04/27 09:08:48;;;;;;;5.10;2.10;;;;;;;19.38;36.27;94723.22;4991742;28;20297;-77
2023/04/27 09:11:31;;;;;;;3.88;2.20;;;;;;;19.38;36.09;94722.44;5010406;28;20176;-76
2023/04/27 09:13:57;;;;;;;8.93;2.38;;;;;;;18.00;34.08;94720.56;5011129;28;20184;-76
2023/04/27 09:16:25;;;;;;;7.88;2.50;;;;;;;17.68;38.37;94726.81;5010984;28;20299;-76
2023/04/27 09:18:51;;;;;;;4.50;2.25;;;;;;;18.02;38.72;94713.13;5011192;28;20557;-76
2023/04/27 09:21:24;;;;;;;6.07;2.60;;;;;;;18.25;38.19;94715.34;5010728;28;20219;-76
2023/04/27 09:23:50;;;;;;;6.57;2.85;;;;;;;18.47;37.93;94721.28;4989676;28;20180;-77
2023/04/27 09:26:26;;;;;;;8.32;2.83;;;;;;;18.27;36.73;94721.22;4989882;28;20212;-76
2023/04/27 09:28:57;;;;;;;7.45;2.97;;;;;;;17.97;35.79;94716.59;4990324;28;20192;-76
2023/04/27 09:31:40;;;;;;;2.95;2.22;;;;;;;17.79;37.54;94690.41;4990374;28;20181;-76
2023/04/27 09:34:06;;;;;;;5.22;2.55;;;;;;;17.47;36.31;94687.78;4990393;28;20616;-76
2023/04/27 09:36:31;;;;;;;6.43;2.67;;;;;;;16.71;37.76;94708.50;4988421;28;20376;-76
2023/04/27 09:38:57;;;;;;;6.88;2.50;;;;;;;16.46;36.82;94695.75;4988313;28;20643;-76
2023/04/27 09:41:24;;;;;;;4.45;2.22;;;;;;;16.48;39.20;94698.16;4988542;28;20658;-76
2023/04/27 09:43:50;;;;;;;5.15;2.20;;;;;;;16.84;39.12;94688.69;4989813;28;20267;-76
2023/04/27 09:46:15;;;;;;;6.95;3.20;;;;;;;16.97;37.61;94686.41;4992730;28;20208;-76
2023/04/27 09:48:41;;;;;;;6.45;2.95;;;;;;;17.05;38.46;94690.44;4993098;28;20208;-76
2023/04/27 09:51:07;;;;;;;9.73;2.75;;;;;;;16.77;38.34;94691.56;4993566;28;20181;-76
2023/04/27 09:53:37;;;;;;;4.28;2.53;;;;;;;16.56;37.61;94685.22;4994132;28;20184;-76
2023/04/27 09:56:18;;;;;;;6.00;2.33;;;;;;;16.50;38.02;94680.91;4993971;28;20173;-76
2023/04/27 09:58:56;;;;;;;3.47;2.22;;;;;;;16.55;40.70;94680.16;4994478;28;20180;-76
2023/04/27 10:01:37;;;;;;;3.60;2.00;;;;;;;17.00;39.07;94679.78;4994867;28;20181;-76
2023/04/27 10:04:15;;;;;;;4.60;1.77;;;;;;;17.45;40.92;94683.81;4994514;28;20268;-76
2023/04/27 10:06:59;;;;;;;4.43;2.20;;;;;;;17.85;37.28;94684.03;4994621;28;20272;-76
2023/04/27 10:09:26;;;;;;;5.78;2.13;;;;;;;17.97;38.77;94681.97;4987212;28;20213;-75
2023/04/27 10:11:53;;;;;;;3.85;2.28;;;;;;;17.53;34.08;94686.78;4980119;28;20174;-75
2023/04/27 10:14:21;;;;;;;6.47;2.97;;;;;;;17.11;36.88;94688.63;4975341;28;20200;-76
2023/04/27 10:16:54;;;;;;;6.85;2.80;;;;;;;16.67;37.34;94670.22;4978546;28;20182;-76
2023/04/27 10:19:22;;;;;;;3.53;2.72;;;;;;;16.78;38.79;94682.50;4983137;28;20171;-76
2023/04/27 10:21:55;;;;;;;4.43;2.60;;;;;;;16.99;38.87;94675.50;4979223;28;20183;-76
2023/04/27 10:24:31;;;;;;;6.80;2.20;;;;;;;16.97;38.67;94649.16;4978146;28;20273;-77
2023/04/27 10:27:04;;;;;;;10.45;2.05;;;;;;;17.55;39.75;94684.66;4982354;28;21057;-76
2023/04/27 10:29:40;;;;;;;4.25;2.33;;;;;;;17.92;38.99;94676.59;4994109;28;20177;-77
2023/04/27 10:32:13;;;;;;;10.10;5.03;;;;;;;18.04;36.90;94674.50;4993374;28;20181;-76
2023/04/27 10:34:39;;;;;;;7.80;2.67;;;;;;;17.77;34.69;94676.53;4991812;28;20843;-76
2023/04/27 10:37:09;;;;;;;5.07;2.35;;;;;;;17.56;36.89;94675.59;4992026;28;20208;-76
2023/04/27 10:39:40;;;;;;;5.95;2.40;;;;;;;17.24;36.96;94681.00;4993284;28;20212;-76
2023/04/27 10:42:06;;;;;;;13.65;7.20;;;;;;;17.17;36.49;94669.78;4993587;28;20192;-76
2023/04/27 10:44:33;;;;;;;3.78;2.30;;;;;;;17.26;37.51;94675.44;4993512;28;20177;-76
2023/04/27 10:47:01;;;;;;;4.82;2.33;;;;;;;17.42;38.10;94677.13;4993685;28;20737;-76
2023/04/27 10:49:28;;;;;;;3.28;2.10;;;;;;;17.43;36.23;94681.38;4994076;28;20185;-76
2023/04/27 10:51:57;;;;;;;3.67;2.60;;;;;;;17.38;35.78;94680.56;4993914;28;20212;-76
2023/04/27 10:54:27;;;;;;;4.75;2.47;;;;;;;17.27;34.72;94677.03;4993925;28;20205;-76
2023/04/27 10:56:53;;;;;;;4.25;2.30;;;;;;;17.05;34.65;94663.84;4993054;28;20725;-76
2023/04/27 10:59:18;;;;;;;6.00;3.28;;;;;;;17.13;36.75;94681.19;4993647;28;20654;-76
2023/04/27 11:01:48;;;;;;;6.03;1.90;;;;;;;17.26;37.02;94670.91;4993653;28;20177;-76
2023/04/27 11:04:14;;;;;;;2.88;1.88;;;;;;;17.58;38.29;94673.47;4993731;28;20181;-76
2023/04/27 11:06:44;;;;;;;2.08;1.88;;;;;;;17.82;38.62;94668.56;4993605;28;20212;-73
2023/04/27 11:09:10;;;;;;;4.82;2.97;;;;;;;17.99;38.63;94663.81;4993489;28;20255;-74
2023/04/27 11:11:36;;;;;;;6.05;2.28;;;;;;;17.87;36.92;94638.50;4993380;28;20625;-73
2023/04/27 11:14:02;;;;;;;2.55;2.15;;;;;;;18.17;38.07;94672.41;4993279;28;20621;-74
2023/04/27 11:16:28;;;;;;;4.72;1.92;;;;;;;18.23;35.29;94676.72;4993150;28;20179;-74
2023/04/27 11:18:53;;;;;;;10.48;2.60;;;;;;;17.93;35.94;94677.41;4993188;28;20260;-73
2023/04/27 11:21:20;;;;;;;5.47;1.80;;;;;;;17.72;34.71;94684.50;4992777;28;20173;-74
2023/04/27 11:23:46;;;;;;;7.50;2.67;;;;;;;17.46;35.75;94685.41;4992716;28;20192;-74
2023/04/27 11:26:17;;;;;;;3.22;2.20;;;;;;;17.14;35.10;94659.66;4992738;28;20213;-74
2023/04/27 11:28:44;;;;;;;6.30;2.10;;;;;;;16.99;36.44;94680.81;4992805;28;20233;-74
2023/04/27 11:31:10;;;;;;;4.63;1.98;;;;;;;16.93;38.65;94684.50;4992558;28;20168;-74